createdAt,value
2023-04-16T00:01:55.615Z,18.97
2023-04-16T00:04:26.137Z,18.96
2023-04-16T00:06:56.102Z,18.97
2023-04-16T00:09:25.547Z,18.96
2023-04-16T00:11:55.056Z,18.96
2023-04-16T00:14:25.437Z,18.95
2023-04-16T00:16:55.758Z,18.95
2023-04-16T00:19:26.116Z,18.94
2023-04-16T00:21:56.428Z,18.93
2023-04-16T00:24:26.728Z,18.93
2023-04-16T00:26:56.548Z,18.93
2023-04-16T00:29:26.882Z,18.92
2023-04-16T00:31:56.335Z,18.92
2023-04-16T00:34:25.432Z,18.92
2023-04-16T00:36:54.400Z,18.92
2023-04-16T00:39:23.779Z,18.92
2023-04-16T00:41:52.841Z,18.91
2023-04-16T00:44:21.160Z,18.91
2023-04-16T00:46:51.573Z,18.90
2023-04-16T00:49:21.562Z,18.89
2023-04-16T00:51:51.460Z,18.89
2023-04-16T00:54:21.098Z,18.88
2023-04-16T00:56:50.568Z,18.88
2023-04-16T00:59:19.388Z,18.88
2023-04-16T01:01:49.788Z,18.88
2023-04-16T01:04:19.858Z,18.87
2023-04-16T01:06:49.823Z,18.87
2023-04-16T01:09:19.624Z,18.88
2023-04-16T01:11:49.510Z,18.87
2023-04-16T01:14:19.662Z,18.88
2023-04-16T01:16:48.012Z,18.86
2023-04-16T01:19:17.547Z,18.87
2023-04-16T01:21:45.788Z,18.85
2023-04-16T01:24:15.597Z,18.86
2023-04-16T01:26:45.068Z,18.85
2023-04-16T01:29:13.478Z,18.85
2023-04-16T01:31:42.163Z,18.85
2023-04-16T01:34:29.066Z,18.84
2023-04-16T01:36:59.531Z,18.83
2023-04-16T01:39:29.415Z,18.84
2023-04-16T01:41:58.762Z,18.82
2023-04-16T01:44:27.464Z,18.83
2023-04-16T01:46:57.413Z,18.83
2023-04-16T01:49:27.856Z,18.83
2023-04-16T01:51:57.776Z,18.84
2023-04-16T01:54:27.731Z,18.83
2023-04-16T01:56:59.066Z,18.84
2023-04-16T01:59:28.994Z,18.83
2023-04-16T02:01:58.963Z,18.83
2023-04-16T02:04:27.804Z,18.82
2023-04-16T02:06:57.366Z,18.82
2023-04-16T02:09:26.128Z,18.82
2023-04-16T02:11:56.396Z,18.81
2023-04-16T02:14:26.163Z,18.83
2023-04-16T02:16:53.784Z,18.81
2023-04-16T02:19:53.859Z,18.81
2023-04-16T02:22:24.301Z,18.80
2023-04-16T02:24:54.737Z,18.81
2023-04-16T02:27:24.815Z,18.81
2023-04-16T02:30:00.242Z,18.81
2023-04-16T02:32:33.131Z,18.81
2023-04-16T02:35:04.034Z,18.81
2023-04-16T02:37:32.368Z,18.80
2023-04-16T02:40:02.274Z,18.80
2023-04-16T02:42:32.156Z,18.79
2023-04-16T02:45:01.949Z,18.80
2023-04-16T02:47:31.746Z,18.79
2023-04-16T02:50:01.619Z,18.79
2023-04-16T02:52:31.497Z,18.78
2023-04-16T02:55:01.547Z,18.78
2023-04-16T02:57:31.420Z,18.78
2023-04-16T03:00:00.356Z,18.78
2023-04-16T03:02:30.531Z,18.77
2023-04-16T03:04:58.910Z,18.76
2023-04-16T03:07:31.373Z,18.77
2023-04-16T03:10:01.311Z,18.77
2023-04-16T03:12:31.361Z,18.76
2023-04-16T03:14:59.729Z,18.77
2023-04-16T03:17:28.833Z,18.76
2023-04-16T03:19:57.766Z,18.77
2023-04-16T03:22:26.658Z,18.76
2023-04-16T03:24:55.559Z,18.76
2023-04-16T03:27:25.327Z,18.76
2023-04-16T03:29:55.395Z,18.76
2023-04-16T03:32:24.751Z,18.74
2023-04-16T03:34:54.764Z,18.76
2023-04-16T03:37:25.157Z,18.76
2023-04-16T03:39:55.591Z,18.74
2023-04-16T03:42:25.578Z,18.75
2023-04-16T03:44:54.272Z,18.74
2023-04-16T03:47:24.187Z,18.74
2023-04-16T03:49:57.412Z,18.73
2023-04-16T03:52:28.597Z,18.73
2023-04-16T03:54:58.032Z,18.73
2023-04-16T03:57:29.319Z,18.73
2023-04-16T04:00:04.956Z,18.73
2023-04-16T04:02:41.798Z,18.73
2023-04-16T04:05:17.709Z,18.71
2023-04-16T04:07:47.421Z,18.71
2023-04-16T04:10:16.867Z,18.71
2023-04-16T04:12:46.940Z,18.72
2023-04-16T04:15:16.875Z,18.70
2023-04-16T04:17:46.794Z,18.70
2023-04-16T04:20:16.333Z,18.72
2023-04-16T04:22:47.915Z,18.72
2023-04-16T04:25:18.642Z,18.71
2023-04-16T04:27:48.550Z,18.70
2023-04-16T04:30:18.233Z,18.69
2023-04-16T04:32:46.560Z,18.69
2023-04-16T04:35:17.647Z,18.67
2023-04-16T04:37:47.088Z,18.69
2023-04-16T04:40:20.234Z,18.67
2023-04-16T04:42:49.190Z,18.67
2023-04-16T04:45:18.666Z,18.67
2023-04-16T04:47:46.848Z,18.67
2023-04-16T04:50:15.263Z,18.66
2023-04-16T04:52:44.430Z,18.67
2023-04-16T04:55:12.426Z,18.68
2023-04-16T04:57:41.897Z,18.67
2023-04-16T05:00:11.493Z,18.67
2023-04-16T05:02:46.482Z,18.67
2023-04-16T05:05:16.859Z,18.67
2023-04-16T05:07:47.125Z,18.68
2023-04-16T05:10:17.547Z,18.66
2023-04-16T05:12:48.251Z,18.67
2023-04-16T05:15:19.164Z,18.67
2023-04-16T05:17:49.630Z,18.67
2023-04-16T05:20:19.608Z,18.67
2023-04-16T05:22:48.973Z,18.67
2023-04-16T05:25:19.380Z,18.67
2023-04-16T05:27:49.465Z,18.66
2023-04-16T05:30:18.501Z,18.66
2023-04-16T05:32:51.485Z,18.66
2023-04-16T05:35:20.319Z,18.66
2023-04-16T05:37:48.937Z,18.66
2023-04-16T05:40:17.597Z,18.66
2023-04-16T05:42:47.826Z,18.66
2023-04-16T05:45:18.049Z,18.66
2023-04-16T05:47:48.377Z,18.67
2023-04-16T05:50:18.862Z,18.67
2023-04-16T05:52:48.273Z,18.68
2023-04-16T05:55:17.557Z,18.68
2023-04-16T05:57:47.777Z,18.68
2023-04-16T06:00:18.100Z,18.68
2023-04-16T06:02:48.591Z,18.68
2023-04-16T06:05:18.736Z,18.69
2023-04-16T06:07:46.536Z,18.70
2023-04-16T06:10:15.907Z,18.69
2023-04-16T06:12:46.269Z,18.70
2023-04-16T06:15:16.556Z,18.70
2023-04-16T06:17:46.983Z,18.72
2023-04-16T06:20:16.500Z,18.72
2023-04-16T06:22:45.190Z,18.73
2023-04-16T06:25:17.653Z,18.74
2023-04-16T06:27:48.498Z,18.75
2023-04-16T06:30:18.724Z,18.77
2023-04-16T06:32:49.027Z,18.78
2023-04-16T06:35:18.480Z,18.78
2023-04-16T06:37:48.734Z,18.79
2023-04-16T06:40:19.021Z,18.81
2023-04-16T06:42:49.332Z,18.81
2023-04-16T06:45:19.810Z,18.84
2023-04-16T06:47:50.148Z,18.85
2023-04-16T06:50:20.440Z,18.86
2023-04-16T06:52:50.449Z,18.88
2023-04-16T06:55:18.860Z,18.89
2023-04-16T06:57:47.690Z,18.90
2023-04-16T07:00:17.997Z,18.91
2023-04-16T07:02:48.348Z,18.92
2023-04-16T07:05:18.493Z,18.94
2023-04-16T07:07:46.747Z,18.94
2023-04-16T07:10:16.821Z,18.95
2023-04-16T07:12:45.550Z,18.96
2023-04-16T07:15:15.852Z,18.97
2023-04-16T07:17:46.283Z,18.98
2023-04-16T07:20:16.790Z,19.01
2023-04-16T07:22:46.180Z,19.01
2023-04-16T07:25:16.569Z,19.03
2023-04-16T07:27:46.914Z,19.04
2023-04-16T07:30:17.233Z,19.06
2023-04-16T07:32:47.398Z,19.04
2023-04-16T07:35:16.098Z,19.04
2023-04-16T07:37:46.129Z,19.04
2023-04-16T07:40:14.647Z,19.05
2023-04-16T07:42:42.669Z,19.05
2023-04-16T07:45:11.482Z,19.05
2023-04-16T07:47:40.950Z,19.05
2023-04-16T07:50:11.368Z,19.06
2023-04-16T07:52:41.259Z,19.07
2023-04-16T07:55:10.115Z,19.08
2023-04-16T07:57:39.215Z,19.09
2023-04-16T08:00:07.636Z,19.11
2023-04-16T08:02:42.176Z,19.13
2023-04-16T08:05:11.066Z,19.15
2023-04-16T08:07:41.136Z,19.15
2023-04-16T08:10:09.491Z,19.17
2023-04-16T08:12:38.861Z,19.19
2023-04-16T08:15:09.246Z,19.20
2023-04-16T08:17:39.515Z,19.21
2023-04-16T08:20:09.865Z,19.22
2023-04-16T08:22:39.968Z,19.23
2023-04-16T08:25:09.274Z,19.22
2023-04-16T08:27:39.591Z,19.23
2023-04-16T08:30:09.798Z,19.23
2023-04-16T08:32:40.124Z,19.26
2023-04-16T08:35:10.477Z,19.27
2023-04-16T08:37:40.735Z,19.30
2023-04-16T08:40:10.508Z,19.30
2023-04-16T08:42:39.830Z,19.31
2023-04-16T08:45:10.120Z,19.31
2023-04-16T08:47:40.545Z,19.32
2023-04-16T08:50:11.022Z,19.31
2023-04-16T08:52:41.831Z,19.33
2023-04-16T08:55:12.097Z,19.36
2023-04-16T08:57:42.340Z,19.38
2023-04-16T09:00:12.284Z,19.38
2023-04-16T09:02:41.188Z,19.41
2023-04-16T09:05:09.986Z,19.41
2023-04-16T09:07:40.310Z,19.45
2023-04-16T09:10:10.784Z,19.50
2023-04-16T09:12:40.302Z,19.54
2023-04-16T09:15:09.375Z,19.59
2023-04-16T09:17:37.538Z,19.61
2023-04-16T09:20:06.872Z,19.61
2023-04-16T09:22:37.155Z,19.63
2023-04-16T09:25:07.506Z,19.63
2023-04-16T09:27:36.439Z,19.63
2023-04-16T09:30:05.487Z,19.64
2023-04-16T09:32:34.462Z,19.65
2023-04-16T09:35:04.110Z,19.67
2023-04-16T09:37:32.799Z,19.70
2023-04-16T09:40:03.141Z,19.73
2023-04-16T09:42:33.514Z,19.74
2023-04-16T09:45:05.534Z,19.77
2023-04-16T09:47:34.371Z,19.80
2023-04-16T09:50:03.244Z,19.80
2023-04-16T09:52:33.648Z,19.83
2023-04-16T09:55:02.994Z,19.85
2023-04-16T09:57:33.364Z,19.88
2023-04-16T10:00:03.676Z,19.91
2023-04-16T10:02:34.010Z,19.92
2023-04-16T10:05:04.394Z,19.98
2023-04-16T10:07:34.814Z,20.10
2023-04-16T10:10:04.927Z,20.18
2023-04-16T10:12:33.085Z,20.23
2023-04-16T10:15:01.977Z,20.23
2023-04-16T10:17:31.440Z,20.23
2023-04-16T10:20:00.855Z,20.25
2023-04-16T10:22:30.304Z,20.28
2023-04-16T10:25:00.610Z,20.29
2023-04-16T10:27:30.050Z,20.30
2023-04-16T10:29:58.751Z,20.30
2023-04-16T10:32:29.099Z,20.32
2023-04-16T10:34:59.358Z,20.37
2023-04-16T10:37:28.812Z,20.43
2023-04-16T10:39:58.118Z,20.45
2023-04-16T10:42:28.118Z,20.49
2023-04-16T10:44:56.801Z,20.52
2023-04-16T10:47:27.140Z,20.55
2023-04-16T10:49:57.039Z,20.56
2023-04-16T10:52:26.390Z,20.56
2023-04-16T10:54:56.199Z,20.55
2023-04-16T10:57:25.806Z,20.53
2023-04-16T10:59:55.254Z,20.50
2023-04-16T11:02:27.266Z,20.46
2023-04-16T11:04:56.681Z,20.43
2023-04-16T11:07:26.498Z,20.42
2023-04-16T11:09:55.329Z,20.43
2023-04-16T11:12:24.712Z,20.42
2023-04-16T11:14:54.168Z,20.38
2023-04-16T11:17:24.782Z,20.38
2023-04-16T11:19:54.607Z,20.38
2023-04-16T11:22:24.875Z,20.38
2023-04-16T11:24:53.661Z,20.37
2023-04-16T11:27:23.979Z,20.36
2023-04-16T11:29:54.351Z,20.36
2023-04-16T11:32:23.405Z,20.33
2023-04-16T11:34:52.265Z,20.30
2023-04-16T11:37:21.179Z,20.29
2023-04-16T11:39:49.983Z,20.30
2023-04-16T11:42:18.991Z,20.31
2023-04-16T11:44:47.951Z,20.29
2023-04-16T11:47:18.354Z,20.28
2023-04-16T11:49:48.684Z,20.27
2023-04-16T11:52:18.208Z,20.30
2023-04-16T11:54:47.018Z,20.30
2023-04-16T11:57:16.433Z,20.33
2023-04-16T12:00:02.611Z,20.32
2023-04-16T12:02:42.328Z,20.29
2023-04-16T12:05:12.754Z,20.26
2023-04-16T12:07:42.701Z,20.22
2023-04-16T12:10:13.137Z,20.20
2023-04-16T12:12:43.501Z,20.18
2023-04-16T12:15:13.514Z,20.16
2023-04-16T12:17:42.313Z,20.15
2023-04-16T12:20:12.706Z,20.12
2023-04-16T12:22:43.006Z,20.10
2023-04-16T12:25:13.271Z,20.10
2023-04-16T12:27:43.669Z,20.09
2023-04-16T12:30:13.994Z,20.08
2023-04-16T12:32:43.893Z,20.08
2023-04-16T12:35:12.812Z,20.09
2023-04-16T12:37:43.256Z,20.11
2023-04-16T12:40:13.666Z,20.15
2023-04-16T12:42:43.994Z,20.17
2023-04-16T12:45:13.868Z,20.20
2023-04-16T12:47:43.775Z,20.23
2023-04-16T12:50:13.167Z,20.24
2023-04-16T12:52:43.055Z,20.27
2023-04-16T12:55:12.405Z,20.28
2023-04-16T12:57:42.422Z,20.29
2023-04-16T13:00:11.070Z,20.30
2023-04-16T13:02:41.422Z,20.35
2023-04-16T13:05:11.876Z,20.38
2023-04-16T13:07:42.172Z,20.42
2023-04-16T13:10:12.004Z,20.52
2023-04-16T13:12:41.181Z,20.66
2023-04-16T13:15:09.861Z,20.77
2023-04-16T13:17:40.167Z,20.83
2023-04-16T13:20:10.634Z,20.85
2023-04-16T13:22:41.034Z,20.80
2023-04-16T13:25:10.148Z,20.75
2023-04-16T13:27:38.780Z,20.74
2023-04-16T13:30:09.051Z,20.72
2023-04-16T13:32:39.452Z,20.73
2023-04-16T13:35:09.395Z,20.70
2023-04-16T13:37:38.768Z,20.69
2023-04-16T13:40:09.121Z,20.72
2023-04-16T13:42:39.099Z,20.71
2023-04-16T13:45:07.883Z,20.67
2023-04-16T13:47:38.234Z,20.69
2023-04-16T13:50:08.852Z,20.72
2023-04-16T13:52:37.514Z,20.76
2023-04-16T13:55:07.842Z,20.76
2023-04-16T13:57:38.076Z,20.75
2023-04-16T14:00:08.425Z,20.75
2023-04-16T14:02:37.925Z,20.73
2023-04-16T14:05:08.404Z,20.71
2023-04-16T14:07:39.007Z,20.70
2023-04-16T14:10:08.381Z,20.67
2023-04-16T14:12:38.596Z,20.68
2023-04-16T14:15:08.825Z,20.69
2023-04-16T14:17:38.803Z,20.64
2023-04-16T14:20:07.625Z,20.59
2023-04-16T14:22:37.934Z,20.54
2023-04-16T14:25:08.235Z,20.52
2023-04-16T14:27:38.545Z,20.49
2023-04-16T14:30:08.591Z,20.48
2023-04-16T14:32:37.365Z,20.48
2023-04-16T14:35:07.716Z,20.48
2023-04-16T14:37:37.857Z,20.49
2023-04-16T14:40:10.225Z,20.47
2023-04-16T14:42:40.582Z,20.44
2023-04-16T14:45:10.474Z,20.42
2023-04-16T14:47:40.092Z,20.42
2023-04-16T14:50:08.866Z,20.45
2023-04-16T14:52:38.683Z,20.49
2023-04-16T14:55:07.273Z,20.50
2023-04-16T14:57:35.976Z,20.50
2023-04-16T15:00:05.802Z,20.49
2023-04-16T15:02:35.272Z,20.54
2023-04-16T15:05:05.735Z,20.66
2023-04-16T15:07:34.656Z,20.74
2023-04-16T15:10:03.974Z,20.76
2023-04-16T15:12:34.340Z,20.74
2023-04-16T15:15:05.245Z,20.69
2023-04-16T15:17:34.394Z,20.68
2023-04-16T15:20:02.869Z,20.68
2023-04-16T15:22:31.297Z,20.70
2023-04-16T15:25:03.961Z,20.66
2023-04-16T15:27:32.904Z,20.64
2023-04-16T15:30:01.347Z,20.61
2023-04-16T15:32:30.664Z,20.54
2023-04-16T15:35:00.991Z,20.48
2023-04-16T15:37:31.275Z,20.43
2023-04-16T15:40:01.640Z,20.40
2023-04-16T15:42:31.599Z,20.38
2023-04-16T15:45:01.234Z,20.35
2023-04-16T15:47:29.815Z,20.31
2023-04-16T15:49:58.734Z,20.28
2023-04-16T15:52:28.570Z,20.26
2023-04-16T15:54:57.873Z,20.23
2023-04-16T15:57:25.956Z,20.25
2023-04-16T16:02:28.549Z,20.31
2023-04-16T16:04:58.645Z,20.36
2023-04-16T16:07:27.559Z,20.37
2023-04-16T16:09:57.890Z,20.38
2023-04-16T16:12:27.749Z,20.39
2023-04-16T16:14:57.236Z,20.41
2023-04-16T16:17:26.102Z,20.41
2023-04-16T16:19:55.452Z,20.36
2023-04-16T16:22:25.776Z,20.32
2023-04-16T16:24:55.831Z,20.31
2023-04-16T16:27:24.422Z,20.27
2023-04-16T16:29:57.034Z,20.25
2023-04-16T16:32:27.236Z,20.24
2023-04-16T16:34:55.978Z,20.25
2023-04-16T16:37:26.070Z,20.23
2023-04-16T16:39:54.689Z,20.20
2023-04-16T16:42:24.813Z,20.17
2023-04-16T16:44:54.787Z,20.11
2023-04-16T16:47:27.350Z,20.05
2023-04-16T16:49:56.330Z,20.02
2023-04-16T16:52:26.256Z,19.97
2023-04-16T16:54:55.276Z,19.91
2023-04-16T16:57:24.081Z,19.87
2023-04-16T16:59:57.272Z,19.82
2023-04-16T17:02:26.079Z,19.77
2023-04-16T17:04:56.529Z,19.73
2023-04-16T17:07:25.917Z,19.69
2023-04-16T17:09:56.047Z,19.65
2023-04-16T17:12:24.738Z,19.63
2023-04-16T17:14:54.944Z,19.62
2023-04-16T17:17:23.867Z,19.58
2023-04-16T17:19:52.833Z,19.57
2023-04-16T17:22:22.164Z,19.53
2023-04-16T17:24:52.460Z,19.50
2023-04-16T17:27:22.286Z,19.48
2023-04-16T17:29:52.545Z,19.45
2023-04-16T17:32:22.922Z,19.40
2023-04-16T17:34:53.381Z,19.41
2023-04-16T17:37:23.888Z,19.37
2023-04-16T17:39:53.424Z,19.36
2023-04-16T17:42:23.653Z,19.33
2023-04-16T17:44:54.025Z,19.32
2023-04-16T17:47:24.026Z,19.28
2023-04-16T17:49:52.944Z,19.25
2023-04-16T17:52:22.334Z,19.26
2023-04-16T17:54:52.649Z,19.25
2023-04-16T17:57:22.877Z,19.22
2023-04-16T17:59:53.234Z,19.21
2023-04-16T18:02:22.729Z,19.19
2023-04-16T18:04:53.429Z,19.17
2023-04-16T18:07:23.119Z,19.17
2023-04-16T18:09:53.434Z,19.15
2023-04-16T18:12:23.707Z,19.13
2023-04-16T18:14:53.508Z,19.13
2023-04-16T18:17:22.842Z,19.10
2023-04-16T18:19:52.778Z,19.09
2023-04-16T18:22:22.148Z,19.06
2023-04-16T18:24:52.648Z,19.06
2023-04-16T18:27:22.455Z,19.04
2023-04-16T18:29:54.769Z,19.03
2023-04-16T18:32:25.126Z,19.03
2023-04-16T18:34:55.072Z,19.01
2023-04-16T18:37:24.481Z,19.00
2023-04-16T18:39:53.141Z,18.98
2023-04-16T18:42:21.764Z,18.97
2023-04-16T18:44:52.089Z,18.96
2023-04-16T18:47:21.917Z,18.94
2023-04-16T18:49:51.245Z,18.94
2023-04-16T18:52:21.573Z,18.92
2023-04-16T18:54:51.965Z,18.92
2023-04-16T18:57:25.152Z,18.91
2023-04-16T18:59:53.885Z,18.89
2023-04-16T19:02:24.323Z,18.88
2023-04-16T19:04:54.658Z,18.87
2023-04-16T19:07:24.520Z,18.86
2023-04-16T19:09:57.694Z,18.85
2023-04-16T19:12:27.977Z,18.84
2023-04-16T19:14:58.210Z,18.84
2023-04-16T19:17:28.353Z,18.83
2023-04-16T19:19:57.134Z,18.83
2023-04-16T19:22:26.711Z,18.82
2023-04-16T19:24:54.911Z,18.81
2023-04-16T19:27:24.195Z,18.80
2023-04-16T19:29:54.437Z,18.80
2023-04-16T19:32:24.321Z,18.79
2023-04-16T19:34:54.324Z,18.78
2023-04-16T19:37:23.092Z,18.77
2023-04-16T19:39:53.457Z,18.79
2023-04-16T19:42:23.782Z,18.78
2023-04-16T19:44:54.091Z,18.78
2023-04-16T19:47:23.904Z,18.77
2023-04-16T19:49:53.240Z,18.76
2023-04-16T19:52:23.668Z,18.75
2023-04-16T19:54:53.022Z,18.74
2023-04-16T19:57:23.306Z,18.72
2023-04-16T19:59:55.094Z,18.71
2023-04-16T20:02:25.562Z,18.70
2023-04-16T20:04:55.454Z,18.71
2023-04-16T20:07:24.808Z,18.71
2023-04-16T20:09:55.221Z,18.70
2023-04-16T20:12:25.196Z,18.70
2023-04-16T20:14:53.781Z,18.69
2023-04-16T20:17:22.099Z,18.70
2023-04-16T20:19:51.192Z,18.69
2023-04-16T20:22:20.073Z,18.67
2023-04-16T20:24:50.359Z,18.69
2023-04-16T20:27:20.606Z,18.68
2023-04-16T20:29:50.928Z,18.68
2023-04-16T20:32:20.804Z,18.67
2023-04-16T20:34:49.840Z,18.67
2023-04-16T20:37:18.215Z,18.66
2023-04-16T20:39:46.975Z,18.66
2023-04-16T20:42:16.328Z,18.66
2023-04-16T20:44:46.626Z,18.65
2023-04-16T20:47:16.460Z,18.65
2023-04-16T20:49:45.765Z,18.64
2023-04-16T20:52:16.010Z,18.63
2023-04-16T20:54:46.273Z,18.64
2023-04-16T20:57:16.519Z,18.62
2023-04-16T20:59:46.891Z,18.63
2023-04-16T21:02:17.368Z,18.63
2023-04-16T21:04:47.713Z,18.62
2023-04-16T21:07:16.414Z,18.61
2023-04-16T21:09:46.790Z,18.60
2023-04-16T21:12:17.180Z,18.60
2023-04-16T21:14:47.497Z,18.60
2023-04-16T21:17:17.325Z,18.60
2023-04-16T21:19:46.707Z,18.58
2023-04-16T21:22:16.632Z,18.59
2023-04-16T21:24:44.877Z,18.58
2023-04-16T21:27:14.232Z,18.58
2023-04-16T21:29:44.964Z,18.57
2023-04-16T21:32:14.788Z,18.57
2023-04-16T21:34:43.662Z,18.58
2023-04-16T21:37:12.844Z,18.57
2023-04-16T21:39:41.568Z,18.58
2023-04-16T21:42:11.862Z,18.56
2023-04-16T21:44:42.271Z,18.55
2023-04-16T21:47:11.716Z,18.55
2023-04-16T21:49:41.529Z,18.55
2023-04-16T21:52:10.625Z,18.55
2023-04-16T21:54:39.331Z,18.54
2023-04-16T21:57:09.771Z,18.53
2023-04-16T21:59:39.615Z,18.54
2023-04-16T22:02:08.542Z,18.53
2023-04-16T22:04:37.893Z,18.53
2023-04-16T22:07:07.954Z,18.52
2023-04-16T22:09:36.400Z,18.53
2023-04-16T22:12:04.551Z,18.53
2023-04-16T22:14:33.852Z,18.53
2023-04-16T22:17:04.129Z,18.51
2023-04-16T22:19:34.575Z,18.51
2023-04-16T22:22:04.872Z,18.52
2023-04-16T22:24:35.464Z,18.52
2023-04-16T22:27:03.891Z,18.52
2023-04-16T22:29:32.583Z,18.51
2023-04-16T22:32:02.950Z,18.50
2023-04-16T22:34:33.310Z,18.50
2023-04-16T22:37:03.693Z,18.51
2023-04-16T22:39:33.056Z,18.50
2023-04-16T22:42:03.309Z,18.50
2023-04-16T22:44:33.092Z,18.49
2023-04-16T22:47:01.939Z,18.50
2023-04-16T22:49:31.303Z,18.49
2023-04-16T22:52:01.371Z,18.49
2023-04-16T22:54:29.577Z,18.48
2023-04-16T22:56:58.882Z,18.47
2023-04-16T22:59:29.336Z,18.48
2023-04-16T23:01:58.880Z,18.47
2023-04-16T23:04:29.256Z,18.47
2023-04-16T23:06:59.589Z,18.46
2023-04-16T23:09:30.232Z,18.47
2023-04-16T23:11:59.757Z,18.47
2023-04-16T23:14:30.061Z,18.45
2023-04-16T23:16:59.606Z,18.45
2023-04-16T23:19:28.393Z,18.45
2023-04-16T23:21:58.696Z,18.46
2023-04-16T23:24:28.951Z,18.45
2023-04-16T23:26:59.160Z,18.44
2023-04-16T23:29:28.929Z,18.43
2023-04-16T23:31:57.986Z,18.44
2023-04-16T23:34:26.475Z,18.44
2023-04-16T23:36:59.241Z,18.43
2023-04-16T23:39:29.249Z,18.43
2023-04-16T23:41:57.991Z,18.43
2023-04-16T23:44:27.286Z,18.42
2023-04-16T23:46:57.219Z,18.43
2023-04-16T23:49:27.234Z,18.42
2023-04-16T23:51:56.068Z,18.42
2023-04-16T23:54:25.308Z,18.42
2023-04-16T23:56:55.563Z,18.41
2023-04-16T23:59:25.914Z,18.40
